createdAt,value
2017-04-07T00:00:10.603Z,8.36
2017-04-07T00:00:51.477Z,8.28
2017-04-07T00:01:32.355Z,8.46
2017-04-07T00:02:13.239Z,8.44
2017-04-07T00:02:54.115Z,8.45
2017-04-07T00:03:34.993Z,8.52
2017-04-07T00:04:15.872Z,8.33
2017-04-07T00:04:56.761Z,8.37
2017-04-07T00:05:37.639Z,8.24
2017-04-07T00:06:18.517Z,8.24
2017-04-07T00:06:59.403Z,8.1
2017-04-07T00:07:40.281Z,8.1
2017-04-07T00:08:21.164Z,8.2
2017-04-07T00:09:02.044Z,8.28
2017-04-07T00:09:42.936Z,8.24
2017-04-07T00:10:23.815Z,7.95
2017-04-07T00:11:04.697Z,7.97
2017-04-07T00:11:45.573Z,7.83
2017-04-07T00:12:26.441Z,7.88
2017-04-07T00:13:07.322Z,7.87
2017-04-07T00:13:48.211Z,7.85
2017-04-07T00:14:29.073Z,7.9
2017-04-07T00:15:09.954Z,7.87
2017-04-07T00:15:50.832Z,7.87
2017-04-07T00:16:31.711Z,7.77
2017-04-07T00:17:12.589Z,7.82
2017-04-07T00:17:53.471Z,7.83
2017-04-07T00:18:34.352Z,7.82
2017-04-07T00:19:15.223Z,7.82
2017-04-07T00:19:56.135Z,7.88
2017-04-07T00:20:37.014Z,7.9
2017-04-07T00:21:17.889Z,7.94
2017-04-07T00:21:58.765Z,7.95
2017-04-07T00:22:39.645Z,7.97
2017-04-07T00:23:20.521Z,7.97
2017-04-07T00:24:01.400Z,7.94
2017-04-07T00:24:42.280Z,7.85
2017-04-07T00:25:23.160Z,7.83
2017-04-07T00:26:04.076Z,8.03
2017-04-07T00:26:44.955Z,8.13
2017-04-07T00:27:25.874Z,8.23
2017-04-07T00:28:06.704Z,8.27
2017-04-07T00:28:47.583Z,8.23
2017-04-07T00:29:28.467Z,8.26
2017-04-07T00:30:09.343Z,8.18
2017-04-07T00:30:50.222Z,8.2
2017-04-07T00:31:31.102Z,8.26
2017-04-07T00:32:11.986Z,8.26
2017-04-07T00:32:52.863Z,8.1
2017-04-07T00:33:33.737Z,8.08
2017-04-07T00:34:14.620Z,7.97
2017-04-07T00:34:55.499Z,7.98
2017-04-07T00:35:36.384Z,7.85
2017-04-07T00:36:17.282Z,7.9
2017-04-07T00:36:58.142Z,7.79
2017-04-07T00:37:39.019Z,7.93
2017-04-07T00:38:19.901Z,7.95
2017-04-07T00:39:00.796Z,8.01
2017-04-07T00:39:41.674Z,7.91
2017-04-07T00:40:22.546Z,7.95
2017-04-07T00:41:03.432Z,8.05
2017-04-07T00:41:44.309Z,7.98
2017-04-07T00:42:25.197Z,7.8
2017-04-07T00:43:06.072Z,7.8
2017-04-07T00:43:46.947Z,7.76
2017-04-07T00:44:27.823Z,7.87
2017-04-07T00:45:08.705Z,7.79
2017-04-07T00:45:49.585Z,7.72
2017-04-07T00:46:30.470Z,7.82
2017-04-07T00:47:11.351Z,7.69
2017-04-07T00:47:52.240Z,7.75
2017-04-07T00:48:33.117Z,7.7
2017-04-07T00:49:13.996Z,7.72
2017-04-07T00:49:54.871Z,7.73
2017-04-07T00:50:35.749Z,7.69
2017-04-07T00:51:16.635Z,7.77
2017-04-07T00:51:57.519Z,7.67
2017-04-07T00:52:38.391Z,7.66
2017-04-07T00:53:19.274Z,7.67
2017-04-07T00:54:00.155Z,7.7
2017-04-07T00:54:41.044Z,7.7
2017-04-07T00:55:21.923Z,7.63
2017-04-07T00:56:02.801Z,7.63
2017-04-07T00:56:43.682Z,7.7
2017-04-07T00:57:24.561Z,7.82
2017-04-07T00:58:05.443Z,7.82
2017-04-07T00:58:46.316Z,7.87
2017-04-07T00:59:27.217Z,8.03
2017-04-07T01:00:08.100Z,8.03
2017-04-07T01:00:48.980Z,8.13
2017-04-07T01:01:29.857Z,8.08
2017-04-07T01:02:10.741Z,7.91
2017-04-07T01:02:51.627Z,7.87
2017-04-07T01:03:32.504Z,7.8
2017-04-07T01:04:13.383Z,7.69
2017-04-07T01:04:54.267Z,7.79
2017-04-07T01:05:35.156Z,7.72
2017-04-07T01:06:16.036Z,7.83
2017-04-07T01:06:56.915Z,7.9
2017-04-07T01:07:37.800Z,7.87
2017-04-07T01:08:18.689Z,7.85
2017-04-07T01:08:59.568Z,7.75
2017-04-07T01:09:40.445Z,7.87
2017-04-07T01:10:21.321Z,7.97
2017-04-07T01:11:02.206Z,7.94
2017-04-07T01:11:43.090Z,8.06
2017-04-07T01:12:23.971Z,7.97
2017-04-07T01:13:04.851Z,8.01
2017-04-07T01:13:45.739Z,7.88
2017-04-07T01:14:26.623Z,7.75
2017-04-07T01:15:07.505Z,7.85
2017-04-07T01:15:48.387Z,7.94
2017-04-07T01:16:29.263Z,7.85
2017-04-07T01:17:10.141Z,7.8
2017-04-07T01:17:51.018Z,7.88
2017-04-07T01:18:31.900Z,8.03
2017-04-07T01:19:12.787Z,8.05
2017-04-07T01:19:53.663Z,7.98
2017-04-07T01:20:34.548Z,8
2017-04-07T01:21:15.427Z,8.12
2017-04-07T01:21:56.341Z,8.2
2017-04-07T01:22:37.224Z,8.24
2017-04-07T01:23:18.104Z,8.06
2017-04-07T01:23:58.985Z,8
2017-04-07T01:24:39.875Z,7.97
2017-04-07T01:25:20.756Z,7.85
2017-04-07T01:26:01.639Z,7.9
2017-04-07T01:26:42.510Z,7.98
2017-04-07T01:27:23.400Z,8
2017-04-07T01:28:04.276Z,8.01
2017-04-07T01:28:45.155Z,8.09
2017-04-07T01:29:26.027Z,8.15
2017-04-07T01:30:06.903Z,8.16
2017-04-07T01:30:47.791Z,8.06
2017-04-07T01:31:28.671Z,7.97
2017-04-07T01:32:09.546Z,7.95
2017-04-07T01:32:50.426Z,8.03
2017-04-07T01:33:31.305Z,8.05
2017-04-07T01:34:12.187Z,8.08
2017-04-07T01:34:53.065Z,7.95
2017-04-07T01:35:33.948Z,7.98
2017-04-07T01:36:14.829Z,7.98
2017-04-07T01:36:55.714Z,8.05
2017-04-07T01:37:36.597Z,8
2017-04-07T01:38:17.482Z,8.03
2017-04-07T01:38:58.362Z,8.09
2017-04-07T01:39:39.243Z,8.12
2017-04-07T01:40:20.123Z,8.09
2017-04-07T01:41:01.003Z,8.1
2017-04-07T01:41:41.890Z,8.03
2017-04-07T01:42:22.772Z,8.09
2017-04-07T01:43:03.657Z,8.1
2017-04-07T01:43:44.536Z,8.12
2017-04-07T01:44:25.410Z,8.2
2017-04-07T01:45:06.288Z,8.23
2017-04-07T01:45:47.170Z,8.19
2017-04-07T01:46:28.057Z,8.15
2017-04-07T01:47:08.938Z,8.13
2017-04-07T01:47:49.820Z,8.15
2017-04-07T01:48:30.700Z,8.2
2017-04-07T01:49:11.585Z,8.2
2017-04-07T01:49:52.467Z,8.2
2017-04-07T01:50:33.344Z,8.18
2017-04-07T01:51:14.228Z,8.18
2017-04-07T01:51:55.111Z,8.18
2017-04-07T01:52:36.000Z,8.19
2017-04-07T01:53:16.878Z,8.16
2017-04-07T01:53:57.757Z,8.18
2017-04-07T01:54:38.644Z,8.16
2017-04-07T01:55:19.531Z,8.13
2017-04-07T01:56:00.406Z,8.23
2017-04-07T01:56:41.288Z,8.2
2017-04-07T01:57:22.161Z,8.19
2017-04-07T01:58:03.059Z,8.19
2017-04-07T01:58:43.930Z,8.06
2017-04-07T01:59:24.811Z,8.13
2017-04-07T02:00:05.694Z,8.18
2017-04-07T02:00:46.578Z,8.2
2017-04-07T02:01:27.463Z,8.2
2017-04-07T02:02:08.339Z,8.16
2017-04-07T02:02:49.238Z,8.16
2017-04-07T02:03:30.111Z,8.13
2017-04-07T02:04:10.995Z,8.18
2017-04-07T02:04:51.871Z,8.2
2017-04-07T02:05:32.751Z,8.19
2017-04-07T02:06:13.633Z,8.16
2017-04-07T02:06:54.511Z,8.18
2017-04-07T02:07:35.391Z,8.23
2017-04-07T02:08:16.259Z,8.27
2017-04-07T02:08:57.138Z,8.26
2017-04-07T02:09:38.019Z,8.24
2017-04-07T02:10:18.899Z,8.26
2017-04-07T02:10:59.779Z,8.26
2017-04-07T02:11:40.659Z,8.23
2017-04-07T02:12:21.538Z,8.18
2017-04-07T02:13:02.422Z,8.24
2017-04-07T02:13:43.300Z,8.19
2017-04-07T02:14:24.180Z,8.2
2017-04-07T02:15:05.059Z,8.23
2017-04-07T02:15:45.942Z,8.23
2017-04-07T02:16:26.826Z,8.2
2017-04-07T02:17:07.704Z,8.19
2017-04-07T02:17:48.584Z,8.23
2017-04-07T02:18:29.468Z,8.16
2017-04-07T02:19:10.360Z,8.15
2017-04-07T02:19:51.236Z,8.2
2017-04-07T02:20:32.116Z,8.16
2017-04-07T02:21:12.996Z,8.1
2017-04-07T02:21:53.879Z,8.09
2017-04-07T02:22:34.771Z,8.06
2017-04-07T02:23:15.649Z,8.08
2017-04-07T02:23:56.534Z,8.09
2017-04-07T02:24:37.418Z,8.19
2017-04-07T02:25:18.302Z,8.19
2017-04-07T02:25:59.177Z,8.15
2017-04-07T02:26:40.059Z,8.12
2017-04-07T02:27:20.939Z,8.26
2017-04-07T02:28:01.827Z,8.15
2017-04-07T02:28:42.704Z,8.16
2017-04-07T02:29:23.580Z,8.19
2017-04-07T02:30:04.459Z,8.26
2017-04-07T02:30:45.340Z,8.16
2017-04-07T02:31:26.221Z,8.15
2017-04-07T02:32:07.106Z,8.15
2017-04-07T02:32:47.989Z,8.15
2017-04-07T02:33:28.870Z,8.13
2017-04-07T02:34:09.754Z,8.16
2017-04-07T02:34:50.635Z,8.16
2017-04-07T02:35:31.516Z,8.19
2017-04-07T02:36:12.406Z,8.19
2017-04-07T02:36:53.293Z,8.18
2017-04-07T02:37:34.167Z,8.19
2017-04-07T02:38:15.057Z,8.16
2017-04-07T02:38:55.944Z,8.16
2017-04-07T02:39:36.826Z,8.18
2017-04-07T02:40:17.697Z,8.18
2017-04-07T02:40:58.572Z,8.16
2017-04-07T02:41:39.451Z,8.16
2017-04-07T02:42:20.334Z,8.15
2017-04-07T02:43:01.204Z,8.12
2017-04-07T02:43:42.084Z,8.16
2017-04-07T02:44:22.964Z,8.19
2017-04-07T02:45:03.848Z,8.23
2017-04-07T02:45:44.727Z,8.23
2017-04-07T02:46:25.609Z,8.26
2017-04-07T02:47:06.484Z,8.26
2017-04-07T02:47:47.361Z,8.16
2017-04-07T02:48:28.239Z,8.18
2017-04-07T02:49:09.118Z,8.19
2017-04-07T02:49:50.000Z,8.16
2017-04-07T02:50:30.878Z,8.06
2017-04-07T02:51:11.762Z,8.12
2017-04-07T02:51:52.646Z,8.06
2017-04-07T02:52:33.533Z,8.12
2017-04-07T02:53:14.414Z,8.15
2017-04-07T02:53:55.298Z,8.16
2017-04-07T02:54:36.182Z,8.87
2017-04-07T02:55:17.060Z,9
2017-04-07T02:55:57.941Z,8.7
2017-04-07T02:56:38.816Z,8.52
2017-04-07T02:57:19.697Z,8.46
2017-04-07T02:58:00.582Z,8.49
2017-04-07T02:58:41.465Z,8.36
2017-04-07T02:59:22.343Z,8.19
2017-04-07T03:00:03.225Z,8.26
2017-04-07T03:00:44.108Z,8.31
2017-04-07T03:01:24.991Z,8.2
2017-04-07T03:02:05.868Z,8.24
2017-04-07T03:02:46.753Z,8.31
2017-04-07T03:03:27.633Z,8.36
2017-04-07T03:04:08.515Z,8.33
2017-04-07T03:04:49.388Z,8.33
2017-04-07T03:05:30.260Z,8.2
2017-04-07T03:06:11.145Z,8.23
2017-04-07T03:06:52.065Z,8.18
2017-04-07T03:07:32.943Z,8.15
2017-04-07T03:08:13.822Z,8.18
2017-04-07T03:08:54.701Z,8.2
2017-04-07T03:09:35.580Z,8.2
2017-04-07T03:10:16.455Z,8.19
2017-04-07T03:10:57.329Z,8.19
2017-04-07T03:11:38.213Z,8.2
2017-04-07T03:12:19.092Z,8.1
2017-04-07T03:12:59.973Z,8.18
2017-04-07T03:13:40.854Z,8.19
2017-04-07T03:14:21.730Z,8.2
2017-04-07T03:15:02.614Z,8.2
2017-04-07T03:15:43.497Z,8.3
2017-04-07T03:16:24.377Z,8.19
2017-04-07T03:17:05.252Z,8.2
2017-04-07T03:17:46.135Z,8.2
2017-04-07T03:18:27.017Z,8.16
2017-04-07T03:19:07.896Z,8.18
2017-04-07T03:19:48.777Z,8.31
2017-04-07T03:20:29.672Z,8.26
2017-04-07T03:21:10.528Z,8.23
2017-04-07T03:21:51.411Z,8.24
2017-04-07T03:22:32.284Z,8.27
2017-04-07T03:23:13.161Z,8.3
2017-04-07T03:23:54.045Z,8.37
2017-04-07T03:24:34.925Z,8.26
2017-04-07T03:25:15.811Z,8.3
2017-04-07T03:25:56.692Z,8.27
2017-04-07T03:26:37.564Z,8.28
2017-04-07T03:27:18.441Z,8.23
2017-04-07T03:27:59.323Z,8.38
2017-04-07T03:28:40.204Z,8.37
2017-04-07T03:29:21.093Z,8.26
2017-04-07T03:30:01.959Z,8.2
2017-04-07T03:30:42.847Z,8.36
2017-04-07T03:31:23.733Z,8.36
2017-04-07T03:32:05.008Z,8.34
2017-04-07T03:32:46.057Z,8.44
2017-04-07T03:33:26.952Z,8.2
2017-04-07T03:34:07.818Z,8.13
2017-04-07T03:34:48.736Z,8.2
2017-04-07T03:35:29.621Z,8.13
2017-04-07T03:36:10.494Z,8.19
2017-04-07T03:36:51.383Z,8.26
2017-04-07T03:37:32.268Z,8.2
2017-04-07T03:38:13.153Z,8.24
2017-04-07T03:38:54.033Z,8.24
2017-04-07T03:39:34.925Z,8.27
2017-04-07T03:40:15.816Z,8.24
2017-04-07T03:40:56.692Z,8.24
2017-04-07T03:41:37.572Z,8.24
2017-04-07T03:42:18.489Z,8.18
2017-04-07T03:42:59.370Z,8.15
2017-04-07T03:43:40.244Z,8.1
2017-04-07T03:44:21.127Z,8.1
2017-04-07T03:45:02.012Z,8.15
2017-04-07T03:45:42.885Z,8.12
2017-04-07T03:46:23.771Z,8.2
2017-04-07T03:47:04.648Z,8.2
2017-04-07T03:47:45.533Z,8.19
2017-04-07T03:48:26.416Z,8.2
2017-04-07T03:49:07.291Z,8.24
2017-04-07T03:49:48.191Z,8.26
2017-04-07T03:50:29.045Z,8.2
2017-04-07T03:51:09.925Z,8.18
2017-04-07T03:51:50.808Z,8.18
2017-04-07T03:52:31.680Z,8.18
2017-04-07T03:53:12.559Z,8.2
2017-04-07T03:53:53.465Z,8.28
2017-04-07T03:54:34.322Z,8.24
2017-04-07T03:55:15.207Z,8.09
2017-04-07T03:55:56.092Z,8.05
2017-04-07T03:56:36.974Z,8.15
2017-04-07T03:57:17.860Z,8.23
2017-04-07T03:57:58.735Z,8.24
2017-04-07T03:58:39.613Z,8.19
2017-04-07T03:59:20.486Z,8.18
2017-04-07T04:00:01.365Z,8.09
2017-04-07T04:00:42.248Z,8.06
2017-04-07T04:01:23.134Z,8.16
2017-04-07T04:02:04.009Z,8.23
2017-04-07T04:02:44.900Z,8.08
2017-04-07T04:03:25.783Z,8.06
2017-04-07T04:04:06.673Z,8.08
2017-04-07T04:04:47.546Z,8.03
2017-04-07T04:05:28.431Z,8.12
2017-04-07T04:06:09.316Z,8.03
2017-04-07T04:06:50.200Z,8.05
2017-04-07T04:07:31.077Z,8.09
2017-04-07T04:08:11.964Z,8.01
2017-04-07T04:08:52.849Z,8.08
2017-04-07T04:09:33.724Z,8.03
2017-04-07T04:10:14.603Z,8.09
2017-04-07T04:10:55.487Z,7.97
2017-04-07T04:11:36.378Z,7.98
2017-04-07T04:12:17.250Z,7.97
2017-04-07T04:12:58.130Z,8.03
2017-04-07T04:13:39.006Z,8.03
2017-04-07T04:14:19.884Z,8.1
2017-04-07T04:15:00.770Z,8.08
2017-04-07T04:15:41.639Z,8
2017-04-07T04:16:22.507Z,8.08
2017-04-07T04:17:03.386Z,8.06
2017-04-07T04:17:44.261Z,7.97
2017-04-07T04:18:25.147Z,8.05
2017-04-07T04:19:06.034Z,7.98
2017-04-07T04:19:46.909Z,8.01
2017-04-07T04:20:27.780Z,8.13
2017-04-07T04:21:08.654Z,8.09
2017-04-07T04:21:49.538Z,8.12
2017-04-07T04:22:30.415Z,8.05
2017-04-07T04:23:11.290Z,7.97
2017-04-07T04:23:52.167Z,8.06
2017-04-07T04:24:33.050Z,8.12
2017-04-07T04:25:13.928Z,8.01
2017-04-07T04:25:54.818Z,8.1
2017-04-07T04:26:35.691Z,8.1
2017-04-07T04:27:16.562Z,8.12
2017-04-07T04:27:57.439Z,8.05
2017-04-07T04:28:38.332Z,8.09
2017-04-07T04:29:19.214Z,8.15
2017-04-07T04:30:00.084Z,8.18
2017-04-07T04:30:40.962Z,8.1
2017-04-07T04:31:21.843Z,8.08
2017-04-07T04:32:02.727Z,8.06
2017-04-07T04:32:43.605Z,8.13
2017-04-07T04:33:24.472Z,8.19
2017-04-07T04:34:05.352Z,8.18
2017-04-07T04:34:46.233Z,8.2
2017-04-07T04:35:27.147Z,8.12
2017-04-07T04:36:08.029Z,8.13
2017-04-07T04:36:48.908Z,8.1
2017-04-07T04:37:29.786Z,8.1
2017-04-07T04:38:10.667Z,8.13
2017-04-07T04:38:51.544Z,8.12
2017-04-07T04:39:32.427Z,8.06
2017-04-07T04:40:13.313Z,8.13
2017-04-07T04:40:54.189Z,8.23
2017-04-07T04:41:35.066Z,8.2
2017-04-07T04:42:15.940Z,8.24
2017-04-07T04:42:56.816Z,8.19
2017-04-07T04:43:37.704Z,8.23
2017-04-07T04:44:18.583Z,8.23
2017-04-07T04:44:59.464Z,8.24
2017-04-07T04:45:40.347Z,8.19
2017-04-07T04:46:21.225Z,8.28
2017-04-07T04:47:02.111Z,8.23
2017-04-07T04:47:42.987Z,8.15
2017-04-07T04:48:23.864Z,8.23
2017-04-07T04:49:04.749Z,8.19
2017-04-07T04:49:45.631Z,8.2
2017-04-07T04:50:26.516Z,8.2
2017-04-07T04:51:07.394Z,8.18
2017-04-07T04:51:48.275Z,8.27
2017-04-07T04:52:29.158Z,8.27
2017-04-07T04:53:10.036Z,8.26
2017-04-07T04:53:50.918Z,8.27
2017-04-07T04:54:31.801Z,8.34
2017-04-07T04:55:12.684Z,8.33
2017-04-07T04:55:53.567Z,8.26
2017-04-07T04:56:34.439Z,8.33
2017-04-07T04:57:15.316Z,8.24
2017-04-07T04:57:56.195Z,8.28
2017-04-07T04:58:37.076Z,8.28
2017-04-07T04:59:17.958Z,8.24
2017-04-07T04:59:58.836Z,8.27
2017-04-07T05:00:39.716Z,8.36
2017-04-07T05:01:20.585Z,8.23
2017-04-07T05:02:01.469Z,8.38
2017-04-07T05:02:42.353Z,8.23
2017-04-07T05:03:23.219Z,8.28
2017-04-07T05:04:04.105Z,8.3
2017-04-07T05:04:45.011Z,8.2
2017-04-07T05:05:25.892Z,8.27
2017-04-07T05:06:06.770Z,8.27
2017-04-07T05:06:47.648Z,8.24
2017-04-07T05:07:28.536Z,8.24
2017-04-07T05:08:09.412Z,8.24
2017-04-07T05:08:50.294Z,8.16
2017-04-07T05:09:31.168Z,8.24
2017-04-07T05:10:12.052Z,8.16
2017-04-07T05:10:52.934Z,8.18
2017-04-07T05:11:33.813Z,8.27
2017-04-07T05:12:14.695Z,8.24
2017-04-07T05:12:55.575Z,8.27
2017-04-07T05:13:36.455Z,8.34
2017-04-07T05:14:17.368Z,8.3
2017-04-07T05:14:58.226Z,8.26
2017-04-07T05:15:39.108Z,8.18
2017-04-07T05:16:19.993Z,8.27
2017-04-07T05:17:00.868Z,8.26
2017-04-07T05:17:41.740Z,8.26
2017-04-07T05:18:22.621Z,8.37
2017-04-07T05:19:03.502Z,8.33
2017-04-07T05:19:44.381Z,8.27
2017-04-07T05:20:25.261Z,8.23
2017-04-07T05:21:06.141Z,8.19
2017-04-07T05:21:47.022Z,8.37
2017-04-07T05:22:27.899Z,8.37
2017-04-07T05:23:08.781Z,8.27
2017-04-07T05:23:49.664Z,8.23
2017-04-07T05:24:30.542Z,8.2
2017-04-07T05:25:11.424Z,8.27
2017-04-07T05:25:52.305Z,8.3
2017-04-07T05:26:33.182Z,8.27
2017-04-07T05:27:14.068Z,8.38
2017-04-07T05:27:54.944Z,8.34
2017-04-07T05:28:35.819Z,8.37
2017-04-07T05:29:16.694Z,8.37
2017-04-07T05:29:57.580Z,8.45
2017-04-07T05:30:38.452Z,8.3
2017-04-07T05:31:19.329Z,8.36
2017-04-07T05:32:00.204Z,8.38
2017-04-07T05:32:41.087Z,8.34
2017-04-07T05:33:21.969Z,8.48
2017-04-07T05:34:02.853Z,8.31
2017-04-07T05:34:43.732Z,8.36
2017-04-07T05:35:24.614Z,8.27
2017-04-07T05:36:05.492Z,8.27
2017-04-07T05:36:46.377Z,8.24
2017-04-07T05:37:27.246Z,8.28
2017-04-07T05:38:08.118Z,8.24
2017-04-07T05:38:48.997Z,8.28
2017-04-07T05:39:29.877Z,8.27
2017-04-07T05:40:10.757Z,8.2
2017-04-07T05:40:51.640Z,8.3
2017-04-07T05:41:32.517Z,8.36
2017-04-07T05:42:13.400Z,8.3
2017-04-07T05:42:54.287Z,8.31
2017-04-07T05:43:35.160Z,8.3
2017-04-07T05:44:16.034Z,8.3
2017-04-07T05:44:56.916Z,8.3
2017-04-07T05:45:37.802Z,8.42
2017-04-07T05:46:18.686Z,8.33
2017-04-07T05:46:59.568Z,8.37
2017-04-07T05:47:40.446Z,8.41
2017-04-07T05:48:21.354Z,8.42
2017-04-07T05:49:02.239Z,8.45
2017-04-07T05:49:43.114Z,8.38
2017-04-07T05:50:23.993Z,8.37
2017-04-07T05:51:04.873Z,8.42
2017-04-07T05:51:45.753Z,8.38
2017-04-07T05:52:26.630Z,8.33
2017-04-07T05:53:07.516Z,8.38
2017-04-07T05:53:48.395Z,8.38
2017-04-07T05:54:29.275Z,8.3
2017-04-07T05:55:10.162Z,8.37
2017-04-07T05:55:51.028Z,8.3
2017-04-07T05:56:31.908Z,8.37
2017-04-07T05:57:12.788Z,8.38
2017-04-07T05:57:53.666Z,8.27
2017-04-07T05:58:34.544Z,8.28
2017-04-07T05:59:15.421Z,8.31
2017-04-07T05:59:56.297Z,8.28
2017-04-07T06:00:37.187Z,8.38
2017-04-07T06:01:18.055Z,8.38
2017-04-07T06:01:58.947Z,8.36
2017-04-07T06:02:39.827Z,8.42
2017-04-07T06:03:20.712Z,8.36
2017-04-07T06:04:01.664Z,8.28
2017-04-07T06:04:42.548Z,8.26
2017-04-07T06:05:23.426Z,8.18
2017-04-07T06:06:04.304Z,8.26
2017-04-07T06:06:45.191Z,8.19
2017-04-07T06:07:26.066Z,8.27
2017-04-07T06:08:06.945Z,8.34
2017-04-07T06:08:47.822Z,8.33
2017-04-07T06:09:28.699Z,8.28
2017-04-07T06:10:09.580Z,8.26
2017-04-07T06:10:50.466Z,8.26
2017-04-07T06:11:31.345Z,8.26
2017-04-07T06:12:12.225Z,8.19
2017-04-07T06:12:53.106Z,8.18
2017-04-07T06:13:33.989Z,8.24
2017-04-07T06:14:14.875Z,8.24
2017-04-07T06:14:55.749Z,8.24
2017-04-07T06:15:36.635Z,8.31
2017-04-07T06:16:17.527Z,8.24
2017-04-07T06:16:58.411Z,8.28
2017-04-07T06:17:39.291Z,8.24
2017-04-07T06:18:20.170Z,8.26
2017-04-07T06:19:01.050Z,8.3
2017-04-07T06:19:41.934Z,8.19
2017-04-07T06:20:22.825Z,8.16
2017-04-07T06:21:03.712Z,8.23
2017-04-07T06:21:44.644Z,8.24
2017-04-07T06:22:25.488Z,8.24
2017-04-07T06:23:06.363Z,8.26
2017-04-07T06:23:47.244Z,8.38
2017-04-07T06:24:28.157Z,8.33
2017-04-07T06:25:09.012Z,8.28
2017-04-07T06:25:49.910Z,8.31
2017-04-07T06:26:30.795Z,8.28
2017-04-07T06:27:11.684Z,8.3
2017-04-07T06:27:52.565Z,8.28
2017-04-07T06:28:33.438Z,8.19
2017-04-07T06:29:14.328Z,8.26
2017-04-07T06:29:55.209Z,8.12
2017-04-07T06:30:36.089Z,8.16
2017-04-07T06:31:16.965Z,8.12
2017-04-07T06:31:57.840Z,8.1
2017-04-07T06:32:38.725Z,8.06
2017-04-07T06:33:19.605Z,8.1
2017-04-07T06:34:00.491Z,8.1
2017-04-07T06:34:41.357Z,8.06
2017-04-07T06:35:22.231Z,8.09
2017-04-07T06:36:03.113Z,8.06
2017-04-07T06:36:43.999Z,8.05
2017-04-07T06:37:24.881Z,8.08
2017-04-07T06:38:05.758Z,8.06
2017-04-07T06:38:46.640Z,8.05
2017-04-07T06:39:27.527Z,8.12
2017-04-07T06:40:08.410Z,8.13
2017-04-07T06:40:49.283Z,8.18
2017-04-07T06:41:30.162Z,8.12
2017-04-07T06:42:11.041Z,9.18
2017-04-07T06:42:51.928Z,9.41
2017-04-07T06:43:32.807Z,10.04
2017-04-07T06:44:13.689Z,10.04
2017-04-07T06:44:54.571Z,10.04
2017-04-07T06:45:35.454Z,10.23
2017-04-07T06:46:16.334Z,10.23
2017-04-07T06:46:57.221Z,10.1
2017-04-07T06:47:38.109Z,10.2
2017-04-07T06:48:18.966Z,10.04
2017-04-07T06:48:59.858Z,9.92
2017-04-07T06:49:40.735Z,10.01
2017-04-07T06:50:21.613Z,10.01
2017-04-07T06:51:02.491Z,10.19
2017-04-07T06:51:43.371Z,10.12
2017-04-07T06:52:24.252Z,9.98
2017-04-07T06:53:05.137Z,9.87
2017-04-07T06:53:46.024Z,10.01
2017-04-07T06:54:26.898Z,9.68
2017-04-07T06:55:07.783Z,10.15
2017-04-07T06:55:48.655Z,10.23
2017-04-07T06:56:29.539Z,10.37
2017-04-07T06:57:10.418Z,10.07
2017-04-07T06:57:51.297Z,9.72
2017-04-07T06:58:32.174Z,10.15
2017-04-07T06:59:13.047Z,9.61
2017-04-07T06:59:53.926Z,9.8
2017-04-07T07:00:34.815Z,9.68
2017-04-07T07:01:15.690Z,9.89
2017-04-07T07:01:56.581Z,9.91
2017-04-07T07:02:37.456Z,9.98
2017-04-07T07:03:18.340Z,9.86
2017-04-07T07:03:59.225Z,9.92
2017-04-07T07:04:40.110Z,9.76
2017-04-07T07:05:20.992Z,10.16
2017-04-07T07:06:01.874Z,9.99
2017-04-07T07:06:42.758Z,9.8
2017-04-07T07:07:23.642Z,10.09
2017-04-07T07:08:04.523Z,9.89
2017-04-07T07:08:45.408Z,10.23
2017-04-07T07:09:26.293Z,10.53
2017-04-07T07:10:07.175Z,10.26
2017-04-07T07:10:48.053Z,10.33
2017-04-07T07:11:28.938Z,10.22
2017-04-07T07:12:09.820Z,10.04
2017-04-07T07:12:50.705Z,9.98
2017-04-07T07:13:31.583Z,10.01
2017-04-07T07:14:12.459Z,9.94
2017-04-07T07:14:53.347Z,10.12
2017-04-07T07:15:34.240Z,10.44
2017-04-07T07:16:15.120Z,10.15
2017-04-07T07:16:56.007Z,10.54
2017-04-07T07:17:36.888Z,10.53
2017-04-07T07:18:17.775Z,10.56
2017-04-07T07:18:58.655Z,10.74
2017-04-07T07:19:39.539Z,10.69
2017-04-07T07:20:20.424Z,10.41
2017-04-07T07:21:01.300Z,10.48
2017-04-07T07:21:42.174Z,10.93
2017-04-07T07:22:23.050Z,10.72
2017-04-07T07:23:03.931Z,10.67
2017-04-07T07:23:44.817Z,10.72
2017-04-07T07:24:25.697Z,10.56
2017-04-07T07:25:06.577Z,10.51
2017-04-07T07:25:47.471Z,10.37
2017-04-07T07:26:28.354Z,10.69
2017-04-07T07:27:09.233Z,10.63
2017-04-07T07:27:50.114Z,10.68
2017-04-07T07:28:30.983Z,10.54
2017-04-07T07:29:11.866Z,10.87
2017-04-07T07:29:52.747Z,10.67
2017-04-07T07:30:33.628Z,10.49
2017-04-07T07:31:14.513Z,10.48
2017-04-07T07:31:55.395Z,10.51
2017-04-07T07:32:36.279Z,10.59
2017-04-07T07:33:17.168Z,10.44
2017-04-07T07:33:58.046Z,10.33
2017-04-07T07:34:38.930Z,10.53
2017-04-07T07:35:19.812Z,10.28
2017-04-07T07:36:00.694Z,10.72
2017-04-07T07:36:41.571Z,11.07
2017-04-07T07:37:22.439Z,11.47
2017-04-07T07:38:03.323Z,10.82
2017-04-07T07:38:44.202Z,11.11
2017-04-07T07:39:25.084Z,10.87
2017-04-07T07:40:05.956Z,10.37
2017-04-07T07:40:46.838Z,10.42
2017-04-07T07:41:27.719Z,10.37
2017-04-07T07:42:08.612Z,11.02
2017-04-07T07:42:49.493Z,11.19
2017-04-07T07:43:30.373Z,11.11
2017-04-07T07:44:11.299Z,10.92
2017-04-07T07:44:52.171Z,10.97
2017-04-07T07:45:33.063Z,11.07
2017-04-07T07:46:13.961Z,10.71
2017-04-07T07:46:54.822Z,10.33
2017-04-07T07:47:35.701Z,10.35
2017-04-07T07:48:16.586Z,10.75
2017-04-07T07:48:57.469Z,10.84
2017-04-07T07:49:38.347Z,10.41
2017-04-07T07:50:19.225Z,10.41
2017-04-07T07:51:00.109Z,10.25
2017-04-07T07:51:41.005Z,10.46
2017-04-07T07:52:21.882Z,10.79
2017-04-07T07:53:02.771Z,10.69
2017-04-07T07:53:43.684Z,10.41
2017-04-07T07:54:24.576Z,10.59
2017-04-07T07:55:05.452Z,10.67
2017-04-07T07:55:46.334Z,10.75
2017-04-07T07:56:27.215Z,10.59
2017-04-07T07:57:08.105Z,10.28
2017-04-07T07:57:48.978Z,10.33
2017-04-07T07:58:29.858Z,10.51
2017-04-07T07:59:10.753Z,10.97
2017-04-07T07:59:51.620Z,11.11
2017-04-07T08:00:32.499Z,10.82
2017-04-07T08:01:13.382Z,10.92
2017-04-07T08:01:54.249Z,10.92
2017-04-07T08:02:35.143Z,10.79
2017-04-07T08:03:16.050Z,10.69
2017-04-07T08:03:56.929Z,10.82
2017-04-07T08:04:37.816Z,10.51
2017-04-07T08:05:18.703Z,10.44
2017-04-07T08:05:59.583Z,10.44
2017-04-07T08:06:40.471Z,11.04
2017-04-07T08:07:21.357Z,11.1
2017-04-07T08:08:02.234Z,10.42
2017-04-07T08:08:43.118Z,9.79
2017-04-07T08:09:24.002Z,9.79
2017-04-07T08:10:04.887Z,9.59
2017-04-07T08:10:45.765Z,9.47
2017-04-07T08:11:26.650Z,9.58
2017-04-07T08:12:07.536Z,9.58
2017-04-07T08:12:48.427Z,9.58
2017-04-07T08:13:29.309Z,9.62
2017-04-07T08:14:10.254Z,9.44
2017-04-07T08:14:51.205Z,9.44
2017-04-07T08:15:32.082Z,9.47
2017-04-07T08:16:12.959Z,9.5
2017-04-07T08:16:53.848Z,9.5
2017-04-07T08:17:34.725Z,9.34
2017-04-07T08:18:15.605Z,9.36
2017-04-07T08:18:56.483Z,9.19
2017-04-07T08:19:37.372Z,9.22
2017-04-07T08:20:18.264Z,9.29
2017-04-07T08:20:59.143Z,9.41
2017-04-07T08:21:40.023Z,9.31
2017-04-07T08:22:20.915Z,9.31
2017-04-07T08:23:01.807Z,9.43
2017-04-07T08:23:42.685Z,9.29
2017-04-07T08:24:23.563Z,9.32
2017-04-07T08:25:04.464Z,9.28
2017-04-07T08:25:45.340Z,9.34
2017-04-07T08:26:26.223Z,9.31
2017-04-07T08:27:07.096Z,9.31
2017-04-07T08:27:47.981Z,9.18
2017-04-07T08:28:28.856Z,9.23
2017-04-07T08:29:09.738Z,9.26
2017-04-07T08:29:50.610Z,9.31
2017-04-07T08:30:31.493Z,9.32
2017-04-07T08:31:12.379Z,9.31
2017-04-07T08:31:53.263Z,9.32
2017-04-07T08:32:34.138Z,9.28
2017-04-07T08:33:15.018Z,9.22
2017-04-07T08:33:55.897Z,9.16
2017-04-07T08:34:36.785Z,9.08
2017-04-07T08:35:17.666Z,9.19
2017-04-07T08:35:58.540Z,9.29
2017-04-07T08:36:39.436Z,9.37
2017-04-07T08:37:20.315Z,9.29
2017-04-07T08:38:01.216Z,9.37
2017-04-07T08:38:42.089Z,9.34
2017-04-07T08:39:22.976Z,9.31
2017-04-07T08:40:03.854Z,9.32
2017-04-07T08:40:44.735Z,9.25
2017-04-07T08:41:25.612Z,9.13
2017-04-07T08:42:06.502Z,9.03
2017-04-07T08:42:47.388Z,9.23
2017-04-07T08:43:28.264Z,9.19
2017-04-07T08:44:09.144Z,9.13
2017-04-07T08:44:50.018Z,9.03
2017-04-07T08:45:30.909Z,9.06
2017-04-07T08:46:11.797Z,9.11
2017-04-07T08:46:52.678Z,9.26
2017-04-07T08:47:33.564Z,9.16
2017-04-07T08:48:14.453Z,9.19
2017-04-07T08:48:55.322Z,9.16
2017-04-07T08:49:36.203Z,9.14
2017-04-07T08:50:17.084Z,9.18
2017-04-07T08:50:57.968Z,9.13
2017-04-07T08:51:38.850Z,9.13
2017-04-07T08:52:19.725Z,9.22
2017-04-07T08:53:00.600Z,9.19
2017-04-07T08:53:41.475Z,9.23
2017-04-07T08:54:22.357Z,9.13
2017-04-07T08:55:03.238Z,9.18
2017-04-07T08:55:44.115Z,9.13
2017-04-07T08:56:24.993Z,9.18
2017-04-07T08:57:05.889Z,9.21
2017-04-07T08:57:46.773Z,9.02
2017-04-07T08:58:27.654Z,9.06
2017-04-07T08:59:08.534Z,9.14
2017-04-07T08:59:49.412Z,9.16
2017-04-07T09:00:30.290Z,9.19
2017-04-07T09:01:11.160Z,9.1
2017-04-07T09:01:52.040Z,9.21
2017-04-07T09:02:32.920Z,9.21
2017-04-07T09:03:13.796Z,9.21
2017-04-07T09:03:54.685Z,9.13